createdAt,value
2019-01-02T00:00:16.149Z,17.51
2019-01-02T00:01:16.145Z,17.62
2019-01-02T00:02:16.602Z,17.65
2019-01-02T00:03:16.129Z,17.68
2019-01-02T00:04:16.100Z,17.58
2019-01-02T00:05:16.280Z,17.65
2019-01-02T00:06:16.091Z,17.53
2019-01-02T00:07:16.069Z,17.58
2019-01-02T00:08:16.098Z,17.65
2019-01-02T00:09:16.199Z,17.58
2019-01-02T00:10:16.036Z,17.65
2019-01-02T00:11:16.031Z,17.63
2019-01-02T00:12:16.021Z,17.63
2019-01-02T00:13:16.039Z,17.68
2019-01-02T00:14:16.039Z,17.73
2019-01-02T00:15:17.068Z,17.70
2019-01-02T00:16:16.927Z,17.74
2019-01-02T00:17:15.964Z,17.68
2019-01-02T00:18:16.064Z,17.65
2019-01-02T00:19:15.936Z,17.74
2019-01-02T00:20:17.436Z,17.68
2019-01-02T00:21:15.913Z,17.71
2019-01-02T00:22:15.918Z,17.70
2019-01-02T00:23:15.910Z,17.66
2019-01-02T00:24:15.890Z,17.63
2019-01-02T00:25:15.907Z,17.71
2019-01-02T00:26:15.866Z,17.68
2019-01-02T00:27:16.000Z,17.71
2019-01-02T00:28:15.865Z,17.71
2019-01-02T00:29:15.832Z,17.70
2019-01-02T00:30:15.824Z,17.76
2019-01-02T00:31:16.111Z,17.71
2019-01-02T00:32:15.795Z,17.74
2019-01-02T00:33:16.460Z,17.71
2019-01-02T00:34:15.778Z,17.66
2019-01-02T00:35:18.983Z,17.70
2019-01-02T00:36:16.611Z,17.65
2019-01-02T00:37:15.745Z,17.70
2019-01-02T00:38:15.742Z,17.70
2019-01-02T00:39:15.716Z,17.73
2019-01-02T00:40:15.705Z,17.73
2019-01-02T00:41:15.704Z,17.70
2019-01-02T00:42:15.705Z,17.70
2019-01-02T00:43:16.258Z,17.70
2019-01-02T00:44:15.670Z,17.68
2019-01-02T00:45:22.218Z,17.74
2019-01-02T00:46:16.638Z,17.65
2019-01-02T00:47:15.993Z,17.68
2019-01-02T00:48:15.888Z,17.76
2019-01-02T00:49:15.623Z,17.73
2019-01-02T00:50:16.350Z,17.70
2019-01-02T00:51:15.601Z,17.73
2019-01-02T00:52:20.177Z,17.68
2019-01-02T00:53:16.950Z,17.66
2019-01-02T00:54:15.722Z,17.71
2019-01-02T00:55:15.542Z,17.63
2019-01-02T00:56:15.554Z,17.68
2019-01-02T00:57:15.655Z,17.68
2019-01-02T00:58:15.514Z,17.68
2019-01-02T00:59:15.520Z,17.76
2019-01-02T01:00:15.485Z,17.66
2019-01-02T01:01:15.483Z,17.66
2019-01-02T01:02:15.674Z,17.73
2019-01-02T01:03:15.456Z,17.63
2019-01-02T01:04:15.695Z,17.73
2019-01-02T01:05:15.431Z,17.68
2019-01-02T01:06:15.421Z,17.68
2019-01-02T01:07:15.424Z,17.71
2019-01-02T01:08:15.477Z,17.71
2019-01-02T01:09:15.757Z,17.79
2019-01-02T01:10:15.378Z,17.80
2019-01-02T01:11:15.501Z,17.71
2019-01-02T01:12:15.353Z,17.73
2019-01-02T01:13:15.345Z,17.83
2019-01-02T01:14:15.363Z,17.80
2019-01-02T01:15:16.294Z,17.77
2019-01-02T01:16:15.340Z,17.83
2019-01-02T01:17:15.308Z,17.74
2019-01-02T01:18:15.330Z,17.79
2019-01-02T01:19:16.379Z,17.73
2019-01-02T01:20:15.480Z,17.84
2019-01-02T01:21:15.262Z,17.73
2019-01-02T01:22:15.259Z,17.81
2019-01-02T01:23:15.541Z,17.73
2019-01-02T01:24:15.245Z,17.81
2019-01-02T01:25:15.273Z,17.80
2019-01-02T01:26:15.220Z,17.83
2019-01-02T01:27:15.197Z,17.80
2019-01-02T01:28:15.187Z,17.79
2019-01-02T01:29:15.363Z,17.83
2019-01-02T01:30:15.162Z,17.81
2019-01-02T01:31:15.146Z,17.79
2019-01-02T01:32:15.252Z,17.79
2019-01-02T01:33:15.130Z,17.84
2019-01-02T01:34:15.164Z,17.83
2019-01-02T01:35:15.301Z,17.80
2019-01-02T01:36:15.175Z,17.86
2019-01-02T01:37:15.079Z,17.83
2019-01-02T01:38:15.069Z,17.79
2019-01-02T01:39:15.066Z,17.83
2019-01-02T01:40:15.079Z,17.76
2019-01-02T01:41:15.036Z,17.79
2019-01-02T01:42:15.046Z,17.79
2019-01-02T01:43:15.054Z,17.91
2019-01-02T01:44:15.021Z,17.81
2019-01-02T01:45:15.015Z,17.91
2019-01-02T01:46:15.078Z,17.89
2019-01-02T01:47:14.971Z,17.81
2019-01-02T01:48:14.988Z,17.89
2019-01-02T01:49:14.951Z,17.80
2019-01-02T01:50:14.961Z,17.79
2019-01-02T01:51:14.935Z,17.87
2019-01-02T01:52:15.006Z,17.83
2019-01-02T01:53:14.903Z,17.89
2019-01-02T01:54:14.985Z,17.91
2019-01-02T01:55:15.447Z,17.83
2019-01-02T01:56:14.871Z,17.89
2019-01-02T01:57:14.877Z,17.91
2019-01-02T01:58:14.855Z,17.83
2019-01-02T01:59:14.845Z,17.83
2019-01-02T02:00:15.690Z,17.74
2019-01-02T02:01:14.827Z,17.83
2019-01-02T02:02:14.807Z,17.71
2019-01-02T02:03:14.795Z,17.66
2019-01-02T02:04:14.793Z,17.70
2019-01-02T02:05:14.797Z,17.73
2019-01-02T02:06:14.771Z,17.60
2019-01-02T02:07:14.751Z,17.54
2019-01-02T02:08:14.932Z,17.47
2019-01-02T02:09:14.730Z,17.60
2019-01-02T02:10:15.026Z,17.57
2019-01-02T02:11:14.709Z,17.46
2019-01-02T02:12:14.701Z,17.49
2019-01-02T02:13:14.686Z,17.53
2019-01-02T02:14:17.339Z,17.51
2019-01-02T02:15:14.695Z,17.51
2019-01-02T02:16:15.195Z,17.43
2019-01-02T02:17:14.889Z,17.43
2019-01-02T02:18:15.030Z,17.40
2019-01-02T02:19:14.779Z,17.42
2019-01-02T02:20:14.689Z,17.49
2019-01-02T02:21:14.645Z,17.45
2019-01-02T02:22:15.743Z,17.35
2019-01-02T02:23:14.627Z,17.35
2019-01-02T02:24:14.578Z,17.33
2019-01-02T02:25:14.621Z,17.27
2019-01-02T02:26:14.554Z,17.35
2019-01-02T02:27:15.675Z,17.21
2019-01-02T02:28:14.610Z,17.24
2019-01-02T02:29:14.508Z,17.22
2019-01-02T02:30:14.765Z,17.22
2019-01-02T02:31:14.493Z,17.24
2019-01-02T02:32:14.477Z,17.21
2019-01-02T02:33:14.472Z,17.22
2019-01-02T02:34:14.453Z,17.22
2019-01-02T02:35:14.441Z,17.15
2019-01-02T02:36:14.458Z,17.18
2019-01-02T02:37:14.433Z,17.17
2019-01-02T02:38:14.604Z,17.17
2019-01-02T02:39:14.398Z,17.18
2019-01-02T02:40:14.386Z,17.25
2019-01-02T02:41:14.392Z,17.07
2019-01-02T02:42:14.392Z,17.22
2019-01-02T02:43:14.528Z,17.14
2019-01-02T02:44:14.349Z,17.15
2019-01-02T02:45:14.822Z,17.17
2019-01-02T02:46:14.337Z,17.15
2019-01-02T02:47:14.322Z,17.14
2019-01-02T02:48:14.315Z,17.21
2019-01-02T02:49:14.289Z,17.17
2019-01-02T02:50:14.282Z,17.12
2019-01-02T02:51:15.542Z,17.17
2019-01-02T02:52:14.320Z,17.14
2019-01-02T02:53:14.265Z,17.10
2019-01-02T02:54:14.236Z,17.07
2019-01-02T02:55:14.658Z,17.18
2019-01-02T02:56:14.225Z,17.09
2019-01-02T02:57:14.203Z,17.09
2019-01-02T02:58:14.328Z,17.17
2019-01-02T02:59:14.455Z,17.09
2019-01-02T03:00:14.173Z,17.14
2019-01-02T03:01:14.186Z,17.15
2019-01-02T03:02:14.297Z,17.09
2019-01-02T03:03:14.144Z,17.06
2019-01-02T03:04:14.716Z,17.05
2019-01-02T03:05:14.117Z,17.06
2019-01-02T03:06:14.122Z,17.05
2019-01-02T03:07:14.088Z,17.07
2019-01-02T03:08:14.077Z,16.98
2019-01-02T03:09:14.163Z,17.09
2019-01-02T03:10:15.068Z,17.03
2019-01-02T03:11:15.067Z,17.09
2019-01-02T03:12:14.047Z,17.07
2019-01-02T03:13:14.059Z,17.03
2019-01-02T03:14:14.321Z,17.03
2019-01-02T03:15:14.000Z,17.07
2019-01-02T03:16:14.007Z,17.06
2019-01-02T03:17:14.081Z,17.05
2019-01-02T03:18:14.246Z,17.05
2019-01-02T03:19:13.957Z,16.99
2019-01-02T03:20:13.946Z,17.02
2019-01-02T03:21:13.967Z,17.00
2019-01-02T03:22:13.932Z,16.95
2019-01-02T03:23:13.918Z,16.98
2019-01-02T03:24:13.919Z,17.02
2019-01-02T03:25:13.894Z,16.87
2019-01-02T03:26:13.934Z,16.98
2019-01-02T03:27:13.867Z,16.92
2019-01-02T03:28:13.866Z,16.98
2019-01-02T03:29:13.849Z,16.88
2019-01-02T03:30:13.840Z,16.90
2019-01-02T03:31:13.827Z,17.07
2019-01-02T03:32:13.849Z,16.90
2019-01-02T03:33:13.810Z,16.99
2019-01-02T03:34:13.799Z,16.92
2019-01-02T03:35:13.791Z,16.91
2019-01-02T03:36:13.772Z,16.91
2019-01-02T03:37:13.781Z,16.92
2019-01-02T03:38:13.772Z,16.91
2019-01-02T03:39:13.743Z,16.92
2019-01-02T03:40:13.725Z,16.85
2019-01-02T03:41:13.715Z,16.92
2019-01-02T03:42:13.719Z,16.91
2019-01-02T03:43:13.693Z,16.91
2019-01-02T03:44:13.694Z,16.85
2019-01-02T03:45:13.670Z,16.96
2019-01-02T03:46:13.662Z,16.85
2019-01-02T03:47:13.668Z,16.96
2019-01-02T03:48:13.637Z,16.90
2019-01-02T03:49:13.627Z,16.84
2019-01-02T03:50:13.627Z,16.82
2019-01-02T03:51:13.610Z,16.84
2019-01-02T03:52:13.615Z,16.87
2019-01-02T03:53:13.582Z,16.92
2019-01-02T03:54:13.577Z,16.85
2019-01-02T03:55:13.566Z,16.84
2019-01-02T03:56:13.555Z,16.82
2019-01-02T03:57:13.576Z,16.85
2019-01-02T03:58:13.546Z,16.84
2019-01-02T03:59:13.516Z,16.77
2019-01-02T04:00:13.504Z,16.77
2019-01-02T04:01:13.491Z,16.80
2019-01-02T04:02:13.541Z,16.77
2019-01-02T04:03:13.481Z,16.78
2019-01-02T04:04:13.459Z,16.77
2019-01-02T04:05:13.447Z,16.82
2019-01-02T04:06:13.439Z,16.82
2019-01-02T04:07:13.445Z,16.82
2019-01-02T04:08:13.430Z,16.80
2019-01-02T04:09:13.417Z,16.81
2019-01-02T04:10:13.393Z,16.77
2019-01-02T04:11:13.381Z,16.81
2019-01-02T04:12:13.389Z,16.77
2019-01-02T04:13:13.360Z,16.73
2019-01-02T04:14:13.359Z,16.78
2019-01-02T04:15:13.346Z,16.70
2019-01-02T04:16:13.351Z,16.80
2019-01-02T04:17:13.314Z,16.78
2019-01-02T04:18:13.326Z,16.78
2019-01-02T04:19:13.306Z,16.73
2019-01-02T04:20:13.285Z,16.80
2019-01-02T04:21:13.280Z,16.73
2019-01-02T04:22:13.267Z,16.77
2019-01-02T04:23:13.266Z,16.69
2019-01-02T04:24:13.248Z,16.75
2019-01-02T04:25:13.245Z,16.75
2019-01-02T04:26:13.226Z,16.73
2019-01-02T04:27:13.217Z,16.70
2019-01-02T04:28:13.209Z,16.70
2019-01-02T04:29:13.182Z,16.77
2019-01-02T04:30:13.173Z,16.69
2019-01-02T04:31:13.173Z,16.77
2019-01-02T04:32:13.150Z,16.69
2019-01-02T04:33:13.170Z,16.65
2019-01-02T04:34:13.134Z,16.80
2019-01-02T04:35:13.125Z,16.72
2019-01-02T04:36:13.105Z,16.75
2019-01-02T04:37:13.103Z,16.69
2019-01-02T04:38:13.101Z,16.80
2019-01-02T04:39:13.078Z,16.67
2019-01-02T04:40:13.067Z,16.70
2019-01-02T04:41:13.055Z,16.69
2019-01-02T04:42:13.039Z,16.77
2019-01-02T04:43:13.065Z,16.73
2019-01-02T04:44:13.028Z,16.77
2019-01-02T04:45:13.006Z,16.73
2019-01-02T04:46:12.994Z,16.60
2019-01-02T04:47:12.989Z,16.72
2019-01-02T04:48:12.992Z,16.69
2019-01-02T04:49:12.982Z,16.73
2019-01-02T04:50:12.960Z,16.63
2019-01-02T04:51:12.950Z,16.67
2019-01-02T04:52:12.929Z,16.69
2019-01-02T04:53:12.939Z,16.75
2019-01-02T04:54:12.905Z,16.67
2019-01-02T04:55:12.914Z,16.69
2019-01-02T04:56:12.894Z,16.78
2019-01-02T04:57:12.873Z,16.72
2019-01-02T04:58:12.877Z,16.69
2019-01-02T04:59:12.851Z,16.72
2019-01-02T05:00:12.841Z,16.78
2019-01-02T05:01:12.847Z,16.73
2019-01-02T05:02:12.816Z,16.69
2019-01-02T05:03:12.826Z,16.75
2019-01-02T05:04:12.795Z,16.75
2019-01-02T05:05:12.790Z,16.65
2019-01-02T05:06:12.779Z,16.65
2019-01-02T05:07:12.786Z,16.69
2019-01-02T05:08:12.792Z,16.77
2019-01-02T05:09:12.745Z,16.70
2019-01-02T05:10:12.732Z,16.69
2019-01-02T05:11:12.723Z,16.69
2019-01-02T05:12:12.713Z,16.69
2019-01-02T05:13:12.713Z,16.63
2019-01-02T05:14:12.701Z,16.66
2019-01-02T05:15:12.676Z,16.67
2019-01-02T05:16:12.664Z,16.67
2019-01-02T05:17:12.650Z,16.69
2019-01-02T05:18:12.651Z,16.75
2019-01-02T05:19:12.660Z,16.67
2019-01-02T05:20:12.626Z,16.73
2019-01-02T05:21:12.613Z,16.75
2019-01-02T05:22:12.601Z,16.73
2019-01-02T05:23:12.584Z,16.69
2019-01-02T05:24:12.592Z,16.67
2019-01-02T05:25:12.595Z,16.70
2019-01-02T05:26:12.554Z,16.69
2019-01-02T05:27:12.546Z,16.65
2019-01-02T05:28:12.541Z,16.72
2019-01-02T05:29:12.535Z,16.69
2019-01-02T05:30:12.515Z,16.73
2019-01-02T05:31:12.509Z,16.72
2019-01-02T05:32:12.483Z,16.66
2019-01-02T05:33:12.473Z,16.72
2019-01-02T05:34:12.482Z,16.67
2019-01-02T05:35:12.457Z,16.67
2019-01-02T05:36:12.438Z,16.70
2019-01-02T05:37:12.441Z,16.72
2019-01-02T05:38:12.422Z,16.69
2019-01-02T05:39:12.423Z,16.70
2019-01-02T05:40:12.394Z,16.62
2019-01-02T05:41:12.384Z,16.73
2019-01-02T05:42:12.373Z,16.69
2019-01-02T05:43:12.382Z,16.70
2019-01-02T05:44:12.365Z,16.57
2019-01-02T05:45:12.346Z,16.70
2019-01-02T05:46:12.327Z,16.62
2019-01-02T05:47:12.320Z,16.67
2019-01-02T05:48:12.311Z,16.70
2019-01-02T05:49:12.338Z,16.70
2019-01-02T05:50:12.288Z,16.75
2019-01-02T05:51:12.334Z,16.70
2019-01-02T05:52:12.264Z,16.67
2019-01-02T05:53:12.267Z,16.70
2019-01-02T05:54:12.272Z,16.67
2019-01-02T05:55:12.236Z,16.77
2019-01-02T05:56:12.217Z,16.59
2019-01-02T05:57:12.213Z,16.69
2019-01-02T05:58:12.193Z,16.65
2019-01-02T05:59:12.204Z,16.65
2019-01-02T06:00:12.172Z,16.66
2019-01-02T06:01:12.171Z,16.67
2019-01-02T06:02:12.151Z,16.69
2019-01-02T06:03:12.137Z,16.59
2019-01-02T06:04:12.145Z,16.60
2019-01-02T06:05:12.118Z,16.62
2019-01-02T06:06:12.109Z,16.60
2019-01-02T06:07:12.138Z,16.65
2019-01-02T06:08:12.085Z,16.65
2019-01-02T06:09:12.112Z,16.67
2019-01-02T06:10:12.066Z,16.59
2019-01-02T06:11:12.047Z,16.59
2019-01-02T06:12:12.037Z,16.62
2019-01-02T06:13:12.040Z,16.65
2019-01-02T06:14:12.018Z,16.57
2019-01-02T06:15:12.025Z,16.59
2019-01-02T06:16:11.993Z,16.52
2019-01-02T06:17:11.982Z,16.59
2019-01-02T06:18:11.981Z,16.60
2019-01-02T06:19:11.977Z,16.60
2019-01-02T06:20:11.971Z,16.59
2019-01-02T06:21:11.944Z,16.62
2019-01-02T06:22:11.925Z,16.59
2019-01-02T06:23:11.917Z,16.57
2019-01-02T06:24:11.906Z,16.62
2019-01-02T06:25:11.948Z,16.51
2019-01-02T06:26:11.882Z,16.59
2019-01-02T06:27:11.871Z,16.59
2019-01-02T06:28:11.858Z,16.59
2019-01-02T06:29:11.859Z,16.55
2019-01-02T06:30:11.859Z,16.60
2019-01-02T06:31:11.839Z,16.57
2019-01-02T06:32:11.816Z,16.55
2019-01-02T06:33:11.819Z,16.54
2019-01-02T06:34:11.795Z,16.51
2019-01-02T06:35:11.804Z,16.57
2019-01-02T06:36:11.770Z,16.54
2019-01-02T06:37:11.772Z,16.55
2019-01-02T06:38:11.757Z,16.50
2019-01-02T06:39:11.750Z,16.54
2019-01-02T06:40:11.743Z,16.52
2019-01-02T06:41:11.714Z,16.50
2019-01-02T06:42:11.705Z,16.52
2019-01-02T06:43:11.704Z,16.59
2019-01-02T06:44:11.684Z,16.52
2019-01-02T06:45:11.697Z,16.55
2019-01-02T06:46:11.662Z,16.52
2019-01-02T06:47:11.650Z,16.42
2019-01-02T06:48:11.637Z,16.47
2019-01-02T06:49:11.633Z,16.50
2019-01-02T06:50:11.643Z,16.47
2019-01-02T06:51:11.605Z,16.48
2019-01-02T06:52:11.593Z,16.50
2019-01-02T06:53:11.581Z,16.45
2019-01-02T06:54:11.570Z,16.55
2019-01-02T06:55:11.585Z,16.54
2019-01-02T06:56:11.563Z,16.42
2019-01-02T06:57:11.537Z,16.47
2019-01-02T06:58:11.525Z,16.50
2019-01-02T06:59:11.516Z,16.45
2019-01-02T07:00:11.519Z,16.42
2019-01-02T07:01:11.507Z,16.45
2019-01-02T07:02:11.479Z,16.41
2019-01-02T07:03:11.477Z,16.51
2019-01-02T07:04:11.458Z,16.50
2019-01-02T07:05:11.487Z,16.40
2019-01-02T07:06:11.488Z,16.47
2019-01-02T07:07:11.446Z,16.50
2019-01-02T07:08:11.413Z,16.50
2019-01-02T07:09:11.406Z,16.45
2019-01-02T07:10:11.392Z,16.44
2019-01-02T07:11:11.399Z,16.42
2019-01-02T07:12:11.374Z,16.44
2019-01-02T07:13:11.379Z,16.42
2019-01-02T07:14:11.347Z,16.47
2019-01-02T07:15:11.338Z,16.42
2019-01-02T07:16:11.338Z,16.47
2019-01-02T07:17:11.322Z,16.40
2019-01-02T07:18:11.306Z,16.44
2019-01-02T07:19:11.314Z,16.41
2019-01-02T07:20:11.283Z,16.40
2019-01-02T07:21:12.285Z,16.41
2019-01-02T07:22:11.257Z,16.47
2019-01-02T07:23:11.258Z,16.44
2019-01-02T07:24:11.235Z,16.45
2019-01-02T07:25:11.250Z,16.41
2019-01-02T07:26:11.247Z,16.42
2019-01-02T07:27:11.203Z,16.41
2019-01-02T07:28:11.199Z,16.42
2019-01-02T07:29:11.178Z,16.47
2019-01-02T07:30:11.173Z,16.47
2019-01-02T07:31:11.199Z,16.44
2019-01-02T07:32:11.144Z,16.42
2019-01-02T07:33:11.139Z,16.44
2019-01-02T07:34:11.126Z,16.50
2019-01-02T07:35:11.113Z,16.44
2019-01-02T07:36:11.121Z,16.44
2019-01-02T07:37:11.122Z,16.41
2019-01-02T07:38:11.079Z,16.48
2019-01-02T07:39:11.072Z,16.48
2019-01-02T07:40:11.062Z,16.45
2019-01-02T07:41:11.078Z,16.44
2019-01-02T07:42:11.060Z,16.45
2019-01-02T07:43:11.032Z,16.44
2019-01-02T07:44:11.019Z,16.37
2019-01-02T07:45:11.002Z,16.44
2019-01-02T07:46:11.025Z,16.41
2019-01-02T07:47:10.992Z,16.44
2019-01-02T07:48:10.968Z,16.42
2019-01-02T07:49:11.100Z,16.40
2019-01-02T07:50:10.947Z,16.42
2019-01-02T07:51:10.935Z,16.44
2019-01-02T07:52:10.946Z,16.41
2019-01-02T07:53:10.915Z,16.47
2019-01-02T07:54:10.901Z,16.42
2019-01-02T07:55:10.902Z,16.42
2019-01-02T07:56:10.877Z,16.42
2019-01-02T07:57:10.888Z,16.45
2019-01-02T07:58:10.863Z,16.41
2019-01-02T07:59:10.851Z,16.41
2019-01-02T08:00:10.832Z,16.41
2019-01-02T08:01:10.836Z,16.42
2019-01-02T08:02:10.831Z,16.40
2019-01-02T08:03:10.810Z,16.37
2019-01-02T08:04:10.799Z,16.41
2019-01-02T08:05:10.778Z,16.44
2019-01-02T08:06:10.767Z,16.45
2019-01-02T08:07:10.788Z,16.41
2019-01-02T08:08:10.751Z,16.41
2019-01-02T08:09:10.732Z,16.41
2019-01-02T08:10:10.727Z,16.42
2019-01-02T08:11:10.712Z,16.37
2019-01-02T08:12:10.715Z,16.37
2019-01-02T08:13:10.700Z,16.37
2019-01-02T08:14:10.677Z,16.37
2019-01-02T08:15:10.666Z,16.34
2019-01-02T08:16:10.668Z,16.32
2019-01-02T08:17:10.672Z,16.33
2019-01-02T08:18:10.631Z,16.34
2019-01-02T08:19:10.639Z,16.30
2019-01-02T08:20:10.631Z,16.34
2019-01-02T08:21:10.603Z,16.32
2019-01-02T08:22:10.631Z,16.32
2019-01-02T08:23:10.576Z,16.34
2019-01-02T08:24:10.569Z,16.33
2019-01-02T08:25:10.564Z,16.33
2019-01-02T08:26:10.549Z,16.42
2019-01-02T08:27:10.547Z,16.34
2019-01-02T08:28:10.539Z,16.34
2019-01-02T08:29:10.510Z,16.33
2019-01-02T08:30:10.503Z,16.40
2019-01-02T08:31:10.502Z,16.40
2019-01-02T08:32:10.480Z,16.40
2019-01-02T08:33:10.484Z,16.32
2019-01-02T08:34:10.454Z,16.34
2019-01-02T08:35:10.450Z,16.37
2019-01-02T08:36:10.437Z,16.42
2019-01-02T08:37:10.432Z,16.37
2019-01-02T08:38:10.435Z,16.40
2019-01-02T08:39:10.410Z,16.36
2019-01-02T08:40:10.386Z,16.36
2019-01-02T08:41:10.381Z,16.41
2019-01-02T08:42:10.409Z,16.34
2019-01-02T08:43:10.383Z,16.41
2019-01-02T08:44:10.346Z,16.45
2019-01-02T08:45:10.333Z,16.36
2019-01-02T08:46:10.321Z,16.42
2019-01-02T08:47:10.310Z,16.41
2019-01-02T08:48:10.333Z,16.45
2019-01-02T08:49:10.310Z,16.42
2019-01-02T08:50:10.302Z,16.44
2019-01-02T08:51:10.264Z,16.45
2019-01-02T08:52:10.259Z,16.55
2019-01-02T08:53:10.244Z,16.48
2019-01-02T08:54:10.254Z,16.45
2019-01-02T08:55:10.224Z,16.50
2019-01-02T08:56:10.544Z,16.59
2019-01-02T08:57:10.198Z,16.45
2019-01-02T08:58:10.185Z,16.47
2019-01-02T08:59:10.599Z,16.47
2019-01-02T09:00:10.212Z,16.52
2019-01-02T09:01:10.156Z,16.44
2019-01-02T09:02:10.150Z,16.48
2019-01-02T09:03:10.140Z,16.48
2019-01-02T09:04:10.134Z,16.47
2019-01-02T09:05:10.109Z,16.50
2019-01-02T09:06:10.111Z,16.42
2019-01-02T09:07:10.105Z,16.48
2019-01-02T09:08:10.074Z,16.48
2019-01-02T09:09:10.190Z,16.52
2019-01-02T09:10:10.052Z,16.52
2019-01-02T09:11:10.073Z,16.47
2019-01-02T09:12:10.074Z,16.47
2019-01-02T09:13:10.020Z,16.45
2019-01-02T09:14:10.249Z,16.51
2019-01-02T09:15:10.167Z,16.47
2019-01-02T09:16:09.986Z,16.44
2019-01-02T09:17:11.489Z,16.45
2019-01-02T09:18:09.962Z,16.47
2019-01-02T09:19:10.019Z,16.45
2019-01-02T09:20:09.939Z,16.48
2019-01-02T09:21:09.936Z,16.44
2019-01-02T09:22:09.918Z,16.44
2019-01-02T09:23:09.907Z,16.45
2019-01-02T09:24:09.915Z,16.44
2019-01-02T09:25:09.906Z,16.50
2019-01-02T09:26:09.887Z,16.51
2019-01-02T09:27:09.860Z,16.45
2019-01-02T09:28:10.083Z,16.52
2019-01-02T09:29:09.854Z,16.55
2019-01-02T09:30:11.738Z,16.51
2019-01-02T09:31:09.816Z,16.55
2019-01-02T09:32:09.813Z,16.62
2019-01-02T09:33:09.803Z,16.69
2019-01-02T09:34:09.785Z,16.60
2019-01-02T09:35:10.132Z,16.65
2019-01-02T09:36:09.785Z,16.63
2019-01-02T09:37:09.881Z,16.67
2019-01-02T09:38:09.745Z,16.66
2019-01-02T09:39:09.896Z,16.69
2019-01-02T09:40:09.737Z,16.59
2019-01-02T09:41:09.716Z,16.69
2019-01-02T09:42:09.847Z,16.70
2019-01-02T09:43:09.685Z,16.66
2019-01-02T09:44:10.193Z,16.59
2019-01-02T09:45:09.687Z,16.72
2019-01-02T09:46:10.396Z,16.72
2019-01-02T09:47:09.683Z,16.69
2019-01-02T09:48:10.732Z,16.77
2019-01-02T09:49:09.622Z,16.75
2019-01-02T09:50:09.725Z,16.75
2019-01-02T09:51:09.595Z,16.70
2019-01-02T09:52:09.855Z,16.73
2019-01-02T09:53:09.591Z,16.75
2019-01-02T09:54:09.563Z,16.77
2019-01-02T09:55:09.645Z,16.72
2019-01-02T09:56:09.557Z,16.69
2019-01-02T09:57:09.534Z,16.69
2019-01-02T09:58:10.121Z,16.73
2019-01-02T09:59:10.019Z,16.80
2019-01-02T10:00:09.500Z,16.77
2019-01-02T10:01:09.643Z,16.72
2019-01-02T10:02:09.474Z,16.70
2019-01-02T10:03:09.603Z,16.72
2019-01-02T10:04:09.664Z,16.75
2019-01-02T10:05:09.452Z,16.77
2019-01-02T10:06:09.467Z,16.80
2019-01-02T10:07:09.417Z,16.80
2019-01-02T10:08:09.409Z,16.78
2019-01-02T10:09:09.408Z,16.85
2019-01-02T10:10:09.395Z,16.80
2019-01-02T10:11:09.394Z,16.84
2019-01-02T10:12:09.377Z,16.82
2019-01-02T10:13:09.353Z,16.78
2019-01-02T10:14:09.343Z,16.88
2019-01-02T10:15:09.339Z,17.00
2019-01-02T10:16:09.340Z,17.05
2019-01-02T10:17:09.328Z,17.14
2019-01-02T10:18:09.306Z,17.22
2019-01-02T10:19:09.286Z,17.39
2019-01-02T10:20:09.278Z,17.36
2019-01-02T10:21:09.300Z,17.45
2019-01-02T10:22:09.256Z,17.42
2019-01-02T10:23:09.242Z,17.51
2019-01-02T10:24:09.249Z,17.53
2019-01-02T10:25:09.222Z,17.54
2019-01-02T10:26:09.209Z,17.58
2019-01-02T10:27:09.216Z,17.70
2019-01-02T10:28:09.195Z,17.73
2019-01-02T10:29:09.176Z,17.68
2019-01-02T10:30:09.173Z,17.77
2019-01-02T10:31:09.158Z,17.83
2019-01-02T10:32:09.176Z,17.92
2019-01-02T10:33:09.133Z,17.91
2019-01-02T10:34:09.176Z,17.96
2019-01-02T10:35:09.113Z,17.91
2019-01-02T10:36:09.115Z,17.89
2019-01-02T10:37:09.114Z,17.86
2019-01-02T10:38:09.081Z,17.91
2019-01-02T10:39:09.070Z,17.91
2019-01-02T10:40:09.072Z,17.94
2019-01-02T10:41:09.051Z,17.89
2019-01-02T10:42:09.060Z,17.89
2019-01-02T10:43:09.023Z,17.89
2019-01-02T10:44:09.023Z,17.87
2019-01-02T10:45:09.009Z,17.87
2019-01-02T10:46:09.000Z,17.89
2019-01-02T10:47:08.994Z,17.87
2019-01-02T10:48:08.988Z,17.92
2019-01-02T10:49:09.066Z,17.91
2019-01-02T10:50:08.950Z,17.96
2019-01-02T10:51:08.945Z,18.01
2019-01-02T10:52:09.493Z,18.05
2019-01-02T10:53:08.949Z,18.05
2019-01-02T10:54:09.862Z,18.05
2019-01-02T10:55:08.892Z,18.02
2019-01-02T10:56:08.881Z,17.96
2019-01-02T10:57:08.916Z,17.89
2019-01-02T10:58:09.267Z,17.79
2019-01-02T10:59:08.852Z,17.79
2019-01-02T11:00:08.862Z,17.74
2019-01-02T11:01:08.831Z,17.68
2019-01-02T11:02:08.815Z,17.71
2019-01-02T11:03:08.825Z,17.74
2019-01-02T11:04:08.799Z,17.76
2019-01-02T11:05:08.793Z,17.73
2019-01-02T11:06:08.779Z,17.71
2019-01-02T11:07:08.768Z,17.60
2019-01-02T11:08:13.513Z,17.63
2019-01-02T11:09:09.873Z,17.53
2019-01-02T11:10:08.794Z,17.53
2019-01-02T11:11:08.717Z,17.55
2019-01-02T11:12:08.706Z,17.65
2019-01-02T11:13:08.716Z,17.70
2019-01-02T11:14:08.691Z,17.79
2019-01-02T11:15:08.671Z,17.83
2019-01-02T11:16:08.659Z,17.81
2019-01-02T11:17:08.649Z,17.87
2019-01-02T11:18:08.656Z,17.89
2019-01-02T11:19:09.216Z,17.92
2019-01-02T11:20:08.621Z,17.89
2019-01-02T11:21:08.605Z,18.01
2019-01-02T11:22:09.991Z,18.10
2019-01-02T11:23:08.598Z,18.17
2019-01-02T11:24:08.573Z,18.21
2019-01-02T11:25:08.573Z,18.25
2019-01-02T11:26:08.557Z,18.29
2019-01-02T11:27:08.540Z,18.29
2019-01-02T11:28:08.544Z,18.25
2019-01-02T11:29:08.522Z,18.21
2019-01-02T11:30:08.513Z,18.32
2019-01-02T11:31:08.499Z,18.36
2019-01-02T11:32:08.492Z,18.49
2019-01-02T11:33:08.501Z,18.64
2019-01-02T11:34:08.463Z,18.84
2019-01-02T11:35:08.521Z,19.12
2019-01-02T11:36:08.456Z,19.17
2019-01-02T11:37:08.444Z,19.13
2019-01-02T11:38:08.443Z,19.16
2019-01-02T11:39:08.414Z,19.23
2019-01-02T11:40:08.397Z,19.45
2019-01-02T11:41:08.398Z,19.34
2019-01-02T11:42:08.389Z,19.20
2019-01-02T11:43:08.384Z,19.20
2019-01-02T11:44:08.353Z,19.06
2019-01-02T11:45:09.099Z,18.94
2019-01-02T11:46:08.634Z,18.97
2019-01-02T11:47:08.320Z,19.06
2019-01-02T11:48:08.337Z,19.06
2019-01-02T11:49:08.311Z,19.09
2019-01-02T11:50:08.329Z,18.97
2019-01-02T11:51:08.280Z,18.93
2019-01-02T11:52:08.272Z,18.99
2019-01-02T11:53:08.323Z,18.86
2019-01-02T11:54:08.276Z,19.02
2019-01-02T11:55:08.247Z,19.01
2019-01-02T11:56:08.221Z,18.97
2019-01-02T11:57:08.210Z,18.91
2019-01-02T11:58:08.209Z,18.91
2019-01-02T11:59:08.205Z,19.01
2019-01-02T12:00:08.182Z,19.02
2019-01-02T12:01:08.173Z,18.94
2019-01-02T12:02:08.164Z,18.94
2019-01-02T12:03:08.148Z,18.89
2019-01-02T12:04:08.162Z,18.86
2019-01-02T12:05:08.134Z,18.82
2019-01-02T12:06:08.120Z,18.71
2019-01-02T12:07:08.099Z,18.56
2019-01-02T12:08:08.097Z,18.53
2019-01-02T12:09:08.125Z,18.46
2019-01-02T12:10:08.073Z,18.29
2019-01-02T12:11:08.064Z,18.38
2019-01-02T12:12:08.056Z,18.31
2019-01-02T12:13:08.039Z,18.28
2019-01-02T12:14:08.025Z,18.32
2019-01-02T12:15:08.044Z,18.14
2019-01-02T12:16:08.008Z,18.07
2019-01-02T12:17:07.994Z,18.05
2019-01-02T12:18:07.981Z,18.04
2019-01-02T12:19:07.972Z,17.99
2019-01-02T12:20:07.971Z,17.95
2019-01-02T12:21:07.944Z,17.96
2019-01-02T12:22:07.948Z,17.94
2019-01-02T12:23:07.928Z,17.87
2019-01-02T12:24:07.918Z,17.89
2019-01-02T12:25:08.094Z,17.94
2019-01-02T12:26:07.890Z,17.80
2019-01-02T12:27:07.884Z,17.83
2019-01-02T12:28:07.878Z,17.74
2019-01-02T12:29:07.883Z,17.65
2019-01-02T12:30:07.869Z,17.62
2019-01-02T12:31:07.836Z,17.76
2019-01-02T12:32:07.824Z,17.63
2019-01-02T12:33:07.813Z,17.66
2019-01-02T12:34:07.832Z,17.58
2019-01-02T12:35:07.814Z,17.60
2019-01-02T12:36:07.780Z,17.68
2019-01-02T12:37:07.771Z,17.53
2019-01-02T12:38:07.758Z,17.58
2019-01-02T12:39:07.754Z,17.60
2019-01-02T12:40:07.789Z,17.55
2019-01-02T12:41:07.739Z,17.60
2019-01-02T12:42:07.716Z,17.68
2019-01-02T12:43:07.704Z,17.70
2019-01-02T12:44:07.693Z,17.68
2019-01-02T12:45:07.688Z,17.68
2019-01-02T12:46:07.702Z,17.68
2019-01-02T12:47:07.674Z,17.73
2019-01-02T12:48:07.655Z,17.68
2019-01-02T12:49:07.671Z,17.65
2019-01-02T12:50:07.627Z,17.76
2019-01-02T12:51:07.633Z,17.71
2019-01-02T12:52:07.618Z,17.73